Time;durP1;ratioP1;P1;durP2;ratioP2;P2;SDS_P1;SDS_P2;PMS_P1;PMS_P2;Temp;Humidity;BMP_temperature;BMP_pressure;BME280_temperature;BME280_humidity;BME280_pressure;Samples;Min_cycle;Max_cycle;Signal;HPM_P1;HPM_P2
2021/06/05 00:00:41;;;;;;;11.30;9.48;;;;;;;15.87;65.32;102030.67;1806505;79;21171;-86
2021/06/05 00:03:09;;;;;;;15.95;9.43;;;;;;;15.81;65.32;102025.22;1805926;79;21030;-86
2021/06/05 00:06:02;;;;;;;;;;;;;;;;;;;;;
2021/06/05 00:08:32;;;;;;;18.62;9.65;;;;;;;15.74;65.41;102018.85;1796791;79;21581;-86
2021/06/05 00:11:22;;;;;;;16.10;8.88;;;;;;;15.69;65.49;102022.70;1738781;81;21626;-86
2021/06/05 00:14:29;;;;;;;17.73;10.72;;;;;;;15.64;65.52;102019.03;1564395;90;21325;-86
2021/06/05 00:17:24;;;;;;;14.28;10.15;;;;;;;15.60;65.69;102018.50;1565150;91;21087;-86
2021/06/05 00:19:57;;;;;;;13.98;8.15;;;;;;;15.55;65.68;102014.39;1585133;90;21691;-86
2021/06/05 00:49:52;;;;;;;13.62;7.35;;;;;;;15.21;66.05;102009.09;1342716;103;21153;-87
2021/06/05 00:52:26;;;;;;;13.88;7.10;;;;;;;15.12;66.25;102004.44;1360136;105;21164;-87
2021/06/05 00:55:24;;;;;;;16.23;8.05;;;;;;;15.07;66.31;101999.44;1348066;105;21838;-87
2021/06/05 01:02:08;;;;;;;13.43;7.80;;;;;;;14.94;66.59;101995.15;1306417;109;21617;-87
2021/06/05 01:04:36;;;;;;;9.88;6.95;;;;;;;14.89;66.79;101997.20;1345661;105;21197;-87
2021/06/05 01:07:19;;;;;;;10.88;6.92;;;;;;;14.86;66.85;101991.81;1329501;105;21210;-87
2021/06/05 01:10:02;;;;;;;11.15;6.90;;;;;;;14.83;66.95;101993.95;1304275;107;21191;-87
2021/06/05 01:13:12;;;;;;;11.57;6.50;;;;;;;14.82;67.04;101991.27;1329395;106;21955;-86
2021/06/05 01:16:01;;;;;;;16.02;6.95;;;;;;;14.78;67.01;101983.65;1323324;106;21927;-87
2021/06/05 01:18:35;;;;;;;13.68;7.05;;;;;;;14.74;67.19;101987.08;1388003;99;21185;-87
2021/06/05 01:21:45;;;;;;;15.45;6.70;;;;;;;14.71;67.31;101985.22;1447521;96;21248;-86
2021/06/05 01:24:35;;;;;;;14.35;7.37;;;;;;;14.69;67.42;101994.88;1468885;96;21282;-86
2021/06/05 01:27:11;;;;;;;12.35;6.87;;;;;;;14.65;67.68;101991.68;1523394;94;21066;-86
2021/06/05 01:29:42;;;;;;;14.03;7.00;;;;;;;14.63;67.65;101986.77;1523333;94;24885;-87
2021/06/05 01:32:13;;;;;;;19.05;7.20;;;;;;;14.59;67.73;101992.84;1523060;94;21663;-86
2021/06/05 01:34:44;;;;;;;12.05;6.72;;;;;;;14.53;67.82;101994.86;1535942;88;21129;-88
2021/06/05 01:37:12;;;;;;;13.68;6.70;;;;;;;14.50;67.92;101989.89;1607322;89;21616;-87
2021/06/05 01:43:35;;;;;;;9.48;6.50;;;;;;;14.49;68.51;101981.46;1859880;76;22695;-88
2021/06/05 01:46:02;;;;;;;13.00;7.28;;;;;;;14.46;68.69;101983.61;1845527;77;21132;-88
2021/06/05 01:48:52;;;;;;;15.05;7.50;;;;;;;14.46;68.82;101984.93;1846200;77;21742;-86
2021/06/05 01:51:26;;;;;;;11.43;7.08;;;;;;;14.45;68.81;101984.88;1669749;85;21146;-85
2021/06/05 01:53:59;;;;;;;14.25;7.87;;;;;;;14.42;68.95;101981.73;1647076;85;21131;-86
2021/06/05 01:57:28;;;;;;;9.85;7.58;;;;;;;14.43;69.12;101979.97;1670068;85;21174;-87
2021/06/05 02:01:23;;;;;;;13.60;7.30;;;;;;;14.42;69.17;101979.08;1503156;94;21139;-87
2021/06/05 02:04:48;;;;;;;11.05;7.37;;;;;;;14.45;69.23;101971.23;1521668;92;21153;-86
2021/06/05 02:07:57;;;;;;;11.43;6.65;;;;;;;14.48;69.33;101962.02;1463857;98;21184;-85
2021/06/05 02:10:29;;;;;;;11.73;6.83;;;;;;;14.50;69.22;101958.98;1388723;102;21301;-85
2021/06/05 02:14:04;;;;;;;18.42;7.50;;;;;;;14.47;69.17;101963.30;1378622;104;21172;-84
2021/06/05 02:16:35;;;;;;;15.80;7.55;;;;;;;14.39;69.36;101965.73;1378869;103;21278;-84
2021/06/05 02:19:16;;;;;;;13.95;7.12;;;;;;;14.37;69.48;101973.63;1378994;103;21843;-85
2021/06/05 02:22:43;;;;;;;24.60;7.70;;;;;;;14.33;69.60;101974.41;1378547;104;21197;-85
2021/06/05 02:25:15;;;;;;;15.80;7.42;;;;;;;14.30;69.70;101970.77;1378878;104;21199;-85
2021/06/05 02:27:42;;;;;;;17.07;7.20;;;;;;;14.28;69.70;101976.45;1379063;104;21287;-86
2021/06/05 02:30:13;;;;;;;15.83;7.65;;;;;;;14.26;69.72;101971.09;1372203;104;21178;-84
2021/06/05 02:32:40;;;;;;;17.90;8.48;;;;;;;14.27;69.83;101973.34;1372335;104;21949;-84
2021/06/05 02:35:11;;;;;;;13.15;7.30;;;;;;;14.27;69.92;101972.02;1391847;102;21131;-84
2021/06/05 02:37:37;;;;;;;16.73;8.03;;;;;;;14.28;70.02;101969.82;1451910;98;21140;-84
2021/06/05 02:40:11;;;;;;;12.90;7.75;;;;;;;14.27;70.09;101969.37;1466076;97;21101;-85
2021/06/05 02:42:39;;;;;;;12.43;7.33;;;;;;;14.30;70.36;101973.01;1479876;92;21693;-84
2021/06/05 02:45:11;;;;;;;13.95;7.60;;;;;;;14.35;70.34;101974.45;1543643;92;21819;-84
2021/06/05 02:47:38;;;;;;;12.18;7.12;;;;;;;14.38;70.30;101970.14;1629250;80;21188;-84
2021/06/05 02:50:08;;;;;;;12.82;7.83;;;;;;;14.42;70.17;101968.92;1775134;79;21037;-84
2021/06/05 02:52:35;;;;;;;12.98;8.05;;;;;;;14.44;70.15;101969.42;1801660;79;21683;-84
2021/06/05 02:55:14;;;;;;;9.45;7.58;;;;;;;14.47;70.13;101960.66;1801107;79;21065;-83
2021/06/05 02:57:41;;;;;;;14.00;7.50;;;;;;;14.49;70.17;101967.81;1848569;77;21695;-84
2021/06/05 03:00:12;;;;;;;11.57;7.75;;;;;;;14.53;70.22;101957.77;1848625;77;21002;-84
2021/06/05 03:02:44;;;;;;;10.70;7.85;;;;;;;14.60;70.46;101957.96;1848768;77;21631;-84
2021/06/05 03:05:11;;;;;;;12.75;7.25;;;;;;;14.68;70.54;101954.68;1848296;77;21109;-84
2021/06/05 03:07:38;;;;;;;11.65;6.97;;;;;;;14.80;70.66;101954.55;1848736;77;21101;-84
2021/06/05 03:10:06;;;;;;;12.93;7.37;;;;;;;14.93;70.62;101952.69;1848421;77;22919;-84
2021/06/05 03:12:33;;;;;;;10.82;7.37;;;;;;;15.06;70.49;101944.19;1848600;77;21339;-84
2021/06/05 03:15:00;;;;;;;13.72;7.05;;;;;;;15.18;70.29;101943.59;1848553;77;21034;-85
2021/06/05 03:17:31;;;;;;;9.33;6.90;;;;;;;15.28;70.17;101946.07;1848642;77;21061;-85
2021/06/05 03:19:56;;;;;;;11.25;7.33;;;;;;;15.36;70.10;101944.48;1848055;77;20998;-85
2021/06/05 03:22:22;;;;;;;9.20;6.78;;;;;;;15.48;70.16;101944.77;1849056;77;21741;-85
2021/06/05 03:24:51;;;;;;;10.72;7.20;;;;;;;15.69;70.10;101947.05;1848460;77;21085;-85
2021/06/05 03:27:19;;;;;;;14.03;7.15;;;;;;;15.88;69.88;101942.20;1848633;77;21002;-85
2021/06/05 03:29:46;;;;;;;10.05;6.12;;;;;;;16.36;70.59;101941.87;1848653;77;21536;-84
2021/06/05 03:32:13;;;;;;;7.03;5.83;;;;;;;17.68;71.67;101926.47;1848887;77;21117;-84
2021/06/05 03:34:40;;;;;;;9.00;6.70;;;;;;;19.32;70.44;101936.34;1848612;77;22476;-84
2021/06/05 03:37:07;;;;;;;7.10;5.33;;;;;;;20.64;68.37;101930.38;1848502;77;21706;-84
2021/06/05 03:39:34;;;;;;;9.18;5.28;;;;;;;21.88;66.90;101923.20;1848517;77;21046;-84
2021/06/05 03:42:07;;;;;;;8.18;5.50;;;;;;;23.12;65.43;101925.67;1847708;77;21729;-85
2021/06/05 03:44:34;;;;;;;12.40;5.95;;;;;;;24.28;63.21;101928.05;1817361;77;21054;-85
2021/06/05 03:47:01;;;;;;;5.67;5.03;;;;;;;25.43;61.17;101922.70;1845083;77;21706;-86
2021/06/05 03:49:28;;;;;;;11.20;5.55;;;;;;;26.25;58.65;101918.42;1845208;77;21058;-86
2021/06/05 03:51:54;;;;;;;7.28;4.95;;;;;;;26.80;56.50;101925.74;1845224;77;21022;-85
2021/06/05 03:54:21;;;;;;;8.15;4.83;;;;;;;27.20;55.19;101921.59;1845197;77;21006;-86
2021/06/05 03:56:48;;;;;;;6.78;5.05;;;;;;;27.86;54.43;101927.93;1845441;77;21128;-85
2021/06/05 03:59:16;;;;;;;10.35;5.80;;;;;;;28.79;53.16;101929.23;1843988;77;21733;-85
2021/06/05 04:01:47;;;;;;;8.73;4.80;;;;;;;29.59;51.52;101928.77;1825031;77;21022;-86
2021/06/05 04:04:19;;;;;;;6.40;5.03;;;;;;;30.41;50.05;101932.08;1810763;79;21113;-86
2021/06/05 04:06:45;;;;;;;5.95;4.70;;;;;;;31.05;48.44;101934.98;1811688;79;21046;-86
2021/06/05 04:09:12;;;;;;;5.83;4.17;;;;;;;31.31;46.42;101936.55;1811995;79;21018;-87
2021/06/05 04:11:39;;;;;;;5.33;4.20;;;;;;;31.53;45.78;101936.53;1812084;79;22581;-87
2021/06/05 04:14:08;;;;;;;10.15;4.45;;;;;;;31.81;44.25;101932.09;1812142;79;20983;-86
2021/06/05 04:16:39;;;;;;;5.65;4.00;;;;;;;32.04;43.59;101935.17;1831923;77;21538;-87
2021/06/05 04:19:06;;;;;;;6.25;4.10;;;;;;;32.44;43.26;101929.66;1845710;77;20993;-86
2021/06/05 04:21:33;;;;;;;7.22;3.72;;;;;;;32.94;42.00;101935.82;1845467;77;21581;-87
2021/06/05 04:24:00;;;;;;;8.75;4.08;;;;;;;33.28;41.25;101929.57;1845415;77;21745;-87
2021/06/05 04:26:29;;;;;;;4.30;3.62;;;;;;;33.60;40.81;101929.72;1845309;77;21103;-86
2021/06/05 04:28:56;;;;;;;9.75;3.87;;;;;;;34.19;39.58;101924.72;1798121;77;21138;-86
2021/06/05 04:31:22;;;;;;;7.83;4.03;;;;;;;34.68;38.89;101927.89;1845364;77;21056;-83
2021/06/05 04:33:49;;;;;;;7.40;4.75;;;;;;;34.92;38.25;101933.78;1845151;77;21558;-83
2021/06/05 04:36:16;;;;;;;7.28;3.92;;;;;;;35.21;37.32;101940.75;1845153;77;21748;-83
2021/06/05 04:38:43;;;;;;;6.35;4.17;;;;;;;35.30;36.77;101940.69;1844792;77;21056;-83
2021/06/05 04:41:12;;;;;;;6.97;3.62;;;;;;;35.67;35.96;101944.78;1823708;77;20964;-83
2021/06/05 04:43:45;;;;;;;8.33;3.52;;;;;;;35.55;35.63;101946.44;1757507;80;21078;-83
2021/06/05 04:46:15;;;;;;;7.22;3.75;;;;;;;36.27;35.21;101938.79;1744143;81;21082;-83
2021/06/05 04:48:45;;;;;;;6.33;4.00;;;;;;;36.61;34.30;101942.92;1748967;81;22621;-82
2021/06/05 04:51:11;;;;;;;5.40;3.52;;;;;;;36.88;33.70;101941.57;1748578;82;21140;-83
2021/06/05 04:53:40;;;;;;;8.88;3.55;;;;;;;37.00;33.24;101939.88;1748837;81;21086;-84
2021/06/05 04:56:06;;;;;;;8.98;3.83;;;;;;;37.54;33.26;101932.03;1749131;82;21493;-83
2021/06/05 04:58:33;;;;;;;6.42;3.72;;;;;;;38.17;32.60;101934.94;1749093;81;21066;-82
2021/06/05 05:01:00;;;;;;;7.75;4.00;;;;;;;38.27;31.46;101936.91;1749448;82;21797;-86
2021/06/05 05:03:28;;;;;;;5.55;3.70;;;;;;;38.17;31.02;101933.56;1749244;82;21090;-86
2021/06/05 05:05:57;;;;;;;6.17;3.85;;;;;;;38.41;30.97;101933.62;1749220;81;21011;-86
2021/06/05 05:08:23;;;;;;;6.28;3.45;;;;;;;38.62;30.39;101928.41;1766842;79;21667;-88
2021/06/05 05:10:51;;;;;;;8.10;3.80;;;;;;;38.82;30.13;101937.91;1773130;79;21051;-88
2021/06/05 05:13:23;;;;;;;5.87;3.25;;;;;;;38.87;29.26;101932.42;1779143;80;21054;-86
2021/06/05 05:15:53;;;;;;;5.00;3.35;;;;;;;38.64;29.31;101940.17;1780028;80;21067;-86
2021/06/05 05:18:20;;;;;;;6.67;3.27;;;;;;;38.62;29.04;101935.28;1780282;79;21074;-87
2021/06/05 05:20:48;;;;;;;7.92;3.77;;;;;;;38.93;28.90;101930.17;1779781;79;21018;-85
2021/06/05 05:23:15;;;;;;;6.97;3.67;;;;;;;38.86;28.22;101927.03;1779627;80;21172;-86
2021/06/05 05:25:42;;;;;;;10.13;3.33;;;;;;;38.29;27.88;101928.52;1780018;80;21754;-86
2021/06/05 05:28:12;;;;;;;6.25;3.42;;;;;;;37.95;28.44;101924.09;1780282;79;20992;-86
2021/06/05 05:30:46;;;;;;;6.45;3.55;;;;;;;38.01;27.90;101927.80;1780133;79;21055;-87
2021/06/05 05:33:12;;;;;;;3.90;3.17;;;;;;;37.10;28.02;101931.38;1779662;80;21549;-86
2021/06/05 05:35:46;;;;;;;5.62;3.22;;;;;;;36.86;28.45;101928.95;1780276;80;21070;-86
2021/06/05 05:38:11;;;;;;;3.98;3.17;;;;;;;37.05;28.27;101937.67;1779510;80;22230;-86
2021/06/05 05:40:42;;;;;;;7.28;3.50;;;;;;;35.82;27.79;101942.97;1779976;80;21058;-85
2021/06/05 05:43:10;;;;;;;4.83;3.33;;;;;;;33.73;28.46;101927.70;1779999;80;20999;-86
2021/06/05 05:45:36;;;;;;;5.37;3.98;;;;;;;32.08;29.77;101938.60;1779662;80;21016;-85
2021/06/05 05:48:06;;;;;;;8.08;3.75;;;;;;;30.68;31.02;101943.27;1780152;80;21078;-87
2021/06/05 05:50:34;;;;;;;8.15;3.83;;;;;;;29.21;31.81;101940.50;1780260;80;21781;-87
2021/06/05 05:53:01;;;;;;;9.38;4.60;;;;;;;27.75;33.35;101942.70;1779921;80;21004;-87
2021/06/05 05:55:27;;;;;;;11.30;4.72;;;;;;;26.80;34.98;101947.34;1749732;80;21655;-87
2021/06/05 05:57:54;;;;;;;7.90;4.95;;;;;;;26.11;35.94;101956.48;1780146;80;21094;-87
2021/06/05 06:00:26;;;;;;;7.92;4.83;;;;;;;25.36;37.05;101954.75;1780649;80;21003;-87
2021/06/05 06:02:53;;;;;;;11.43;5.50;;;;;;;24.54;38.23;101957.79;1779401;80;21766;-88
2021/06/05 06:05:23;;;;;;;10.15;5.22;;;;;;;24.02;39.45;101957.96;1780229;80;21058;-88
2021/06/05 06:07:49;;;;;;;8.08;6.30;;;;;;;23.74;40.52;101962.72;1746805;80;21133;-86
2021/06/05 06:10:16;;;;;;;14.60;6.35;;;;;;;23.68;41.36;101958.30;1780451;80;21062;-87
2021/06/05 06:12:43;;;;;;;11.57;5.75;;;;;;;23.58;41.77;101956.63;1780445;79;21050;-90
2021/06/05 06:15:13;;;;;;;12.55;7.58;;;;;;;23.42;42.59;101952.72;1780206;80;21910;-87
2021/06/05 06:17:41;;;;;;;12.47;6.85;;;;;;;23.39;42.87;101950.08;1780140;80;21023;-86
2021/06/05 06:20:19;;;;;;;8.75;6.55;;;;;;;23.27;43.46;101952.44;1780348;80;20995;-88
2021/06/05 06:22:45;;;;;;;8.70;5.50;;;;;;;22.91;43.87;101949.07;1780555;80;21109;-90
2021/06/05 06:25:14;;;;;;;16.73;6.53;;;;;;;22.46;44.52;101955.63;1780602;80;21101;-90
2021/06/05 06:27:41;;;;;;;10.93;6.60;;;;;;;22.00;45.42;101953.09;1780310;80;21778;-90
2021/06/05 06:30:09;;;;;;;17.37;7.10;;;;;;;21.68;46.27;101960.80;1780571;80;20964;-89
2021/06/05 06:32:36;;;;;;;10.13;6.92;;;;;;;21.35;46.88;101964.78;1780547;80;21027;-90
2021/06/05 06:35:03;;;;;;;12.30;6.67;;;;;;;20.98;47.70;101974.58;1795411;79;21042;-90
2021/06/05 06:37:30;;;;;;;8.95;6.35;;;;;;;20.75;48.67;101978.56;1780538;80;21600;-90
2021/06/05 06:39:57;;;;;;;12.65;6.95;;;;;;;20.67;49.30;101973.66;1780495;80;22553;-89
2021/06/05 06:42:24;;;;;;;14.98;7.40;;;;;;;20.63;49.53;101981.19;1780525;80;21275;-89
2021/06/05 06:44:50;;;;;;;9.25;7.00;;;;;;;20.42;49.91;101982.91;1791639;80;21583;-89
2021/06/05 06:47:17;;;;;;;13.22;6.62;;;;;;;20.39;50.48;101985.55;1794892;79;21099;-91
2021/06/05 06:49:44;;;;;;;8.08;6.90;;;;;;;20.29;50.55;101985.05;1777411;80;21058;-90
2021/06/05 06:52:11;;;;;;;12.25;7.30;;;;;;;20.18;51.15;101979.22;1794672;80;22583;-90
2021/06/05 06:54:37;;;;;;;11.93;7.12;;;;;;;20.14;51.53;101980.09;1795171;79;21006;-90
2021/06/05 06:57:06;;;;;;;9.80;6.00;;;;;;;20.19;51.76;101986.79;1777697;80;21047;-91
2021/06/05 06:59:33;;;;;;;12.07;7.05;;;;;;;20.18;51.98;101983.23;1777496;80;21597;-92
2021/06/05 07:02:00;;;;;;;10.68;6.60;;;;;;;20.30;52.04;101981.50;1794661;80;21046;-92
2021/06/05 07:04:26;;;;;;;10.30;6.70;;;;;;;20.32;51.97;101988.63;1789804;78;21707;-91
2021/06/05 07:06:53;;;;;;;10.58;6.22;;;;;;;20.23;52.18;101979.68;1789853;78;21111;-91
2021/06/05 07:09:34;;;;;;;9.63;6.62;;;;;;;20.24;52.47;101982.81;1790327;78;21037;-93
2021/06/05 07:12:01;;;;;;;12.33;5.85;;;;;;;20.33;52.50;101988.20;1794979;79;21636;-84
2021/06/05 07:14:28;;;;;;;11.68;7.50;;;;;;;20.30;52.60;101988.19;1777183;80;21572;-84
2021/06/05 07:16:59;;;;;;;11.20;6.17;;;;;;;20.37;52.90;101981.53;1753078;80;21713;-84
2021/06/05 07:19:27;;;;;;;8.80;5.35;;;;;;;20.55;52.69;101968.68;1764958;80;21522;-84
2021/06/05 07:21:53;;;;;;;15.38;6.15;;;;;;;20.57;52.51;101972.25;1793764;79;21100;-84
2021/06/05 07:24:20;;;;;;;8.45;5.67;;;;;;;20.62;52.79;101976.30;1793754;79;21058;-84
2021/06/05 07:26:47;;;;;;;7.12;4.78;;;;;;;20.64;52.58;101971.84;1793747;78;21002;-84
2021/06/05 07:29:14;;;;;;;6.58;4.80;;;;;;;20.64;52.18;101962.48;1794404;79;21899;-84
2021/06/05 07:31:45;;;;;;;6.45;5.37;;;;;;;20.65;52.04;101975.44;1794232;79;21600;-84
2021/06/05 07:34:12;;;;;;;7.40;5.10;;;;;;;20.62;51.88;101969.61;1794249;78;21094;-84
2021/06/05 07:36:43;;;;;;;8.20;4.65;;;;;;;20.65;51.81;101965.62;1794192;80;21030;-83
2021/06/05 07:39:12;;;;;;;6.50;4.75;;;;;;;20.62;51.63;101957.57;1794378;79;20967;-84
2021/06/05 07:41:41;;;;;;;6.60;4.25;;;;;;;20.60;51.45;101960.69;1794466;79;22416;-83
2021/06/05 07:44:09;;;;;;;5.35;4.03;;;;;;;20.59;50.95;101964.23;1791910;79;20976;-83
2021/06/05 07:46:47;;;;;;;5.92;4.50;;;;;;;20.55;50.59;101958.40;1788276;79;21070;-83
2021/06/05 07:49:14;;;;;;;9.25;4.83;;;;;;;20.44;50.58;101961.06;1788348;79;21094;-84
2021/06/05 07:51:43;;;;;;;6.85;3.98;;;;;;;20.37;50.62;101959.25;1768874;80;21027;-83
2021/06/05 07:54:10;;;;;;;6.22;4.40;;;;;;;20.38;50.64;101956.59;1788883;78;21727;-83
2021/06/05 07:56:37;;;;;;;7.12;4.03;;;;;;;20.37;50.62;101973.50;1788535;79;21062;-84
2021/06/05 07:59:04;;;;;;;6.50;3.90;;;;;;;20.28;50.65;101950.73;1788248;79;21073;-84
2021/06/05 08:01:31;;;;;;;6.20;3.83;;;;;;;20.35;50.45;101955.69;1788687;80;21141;-83
2021/06/05 08:03:57;;;;;;;10.93;4.53;;;;;;;20.35;50.36;101956.56;1788617;80;21545;-84
2021/06/05 08:06:24;;;;;;;7.65;4.75;;;;;;;20.38;50.61;101948.98;1788601;80;22577;-84
2021/06/05 08:08:51;;;;;;;6.45;4.33;;;;;;;20.47;49.98;101943.67;1788580;80;21051;-83
2021/06/05 08:11:21;;;;;;;5.90;3.67;;;;;;;20.47;49.96;101946.34;1788565;79;21556;-83
2021/06/05 08:13:47;;;;;;;5.80;3.85;;;;;;;20.50;49.52;101938.80;1788679;80;21628;-84
2021/06/05 08:16:14;;;;;;;6.97;3.70;;;;;;;20.48;48.89;101940.58;1788597;80;21085;-83
2021/06/05 08:18:41;;;;;;;4.50;3.85;;;;;;;20.47;49.25;101940.11;1788645;79;22422;-83
2021/06/05 08:21:12;;;;;;;7.42;4.00;;;;;;;20.55;49.55;101937.00;1788590;79;21042;-83
2021/06/05 08:23:39;;;;;;;4.97;3.58;;;;;;;20.65;49.40;101943.33;1788521;79;21178;-83
2021/06/05 08:26:07;;;;;;;5.70;3.67;;;;;;;20.70;49.25;101933.09;1788664;79;21062;-84
2021/06/05 08:28:36;;;;;;;7.35;3.85;;;;;;;20.69;49.15;101928.61;1788689;79;21094;-83
2021/06/05 08:31:06;;;;;;;6.67;4.40;;;;;;;20.70;49.23;101931.75;1788567;80;21792;-83
2021/06/05 08:33:33;;;;;;;7.83;4.58;;;;;;;20.72;49.55;101923.27;1788767;80;21045;-84
2021/06/05 08:36:00;;;;;;;5.17;4.17;;;;;;;20.81;49.77;101927.72;1788491;79;21536;-84
2021/06/05 08:38:31;;;;;;;6.85;4.97;;;;;;;20.90;49.80;101927.73;1788623;79;21561;-83
2021/06/05 08:41:29;;;;;;;5.70;3.67;;;;;;;20.95;49.39;101926.42;1787996;79;21353;-83
2021/06/05 08:44:04;;;;;;;4.62;4.00;;;;;;;20.95;49.39;101929.98;1789512;79;21742;-83
2021/06/05 08:46:40;;;;;;;8.45;3.83;;;;;;;20.99;49.18;101931.34;1794434;79;21003;-84
2021/06/05 08:49:14;;;;;;;10.63;4.28;;;;;;;20.99;48.68;101932.67;1794783;79;21062;-84
2021/06/05 08:52:05;;;;;;;7.55;4.62;;;;;;;20.92;48.67;101928.63;1794780;79;20992;-84
2021/06/05 08:54:35;;;;;;;6.83;3.95;;;;;;;20.93;48.79;101933.11;1794441;79;21512;-84
2021/06/05 08:57:13;;;;;;;5.20;4.15;;;;;;;20.90;49.13;101929.53;1794546;79;22810;-84
2021/06/05 08:59:44;;;;;;;7.55;4.05;;;;;;;20.91;49.38;101934.89;1774426;79;21011;-83
2021/06/05 09:02:11;;;;;;;6.08;4.55;;;;;;;20.98;49.54;101930.42;1794948;79;21051;-84
2021/06/05 09:04:38;;;;;;;8.28;4.40;;;;;;;21.01;49.86;101928.21;1794753;79;21062;-83
2021/06/05 09:07:09;;;;;;;8.25;4.80;;;;;;;21.04;49.95;101926.85;1794710;79;21054;-83
2021/06/05 09:09:40;;;;;;;5.70;4.60;;;;;;;21.02;49.88;101925.96;1794862;79;22589;-83
2021/06/05 09:12:08;;;;;;;5.87;4.35;;;;;;;21.00;50.25;101928.63;1794707;79;21436;-84
2021/06/05 09:14:38;;;;;;;5.45;4.15;;;;;;;21.00;50.27;101935.33;1794661;79;21580;-84
2021/06/05 09:17:14;;;;;;;9.73;4.33;;;;;;;21.03;50.51;101935.34;1794465;79;21596;-84
2021/06/05 09:19:41;;;;;;;11.95;4.83;;;;;;;21.07;50.04;101921.05;1782250;79;21125;-83
2021/06/05 09:22:13;;;;;;;6.83;3.70;;;;;;;21.08;50.22;101924.65;1794913;79;21757;-84
2021/06/05 09:24:44;;;;;;;8.08;3.77;;;;;;;21.06;49.87;101926.41;1794693;79;21101;-83
2021/06/05 09:27:19;;;;;;;6.92;4.50;;;;;;;21.03;49.95;101931.33;1794741;79;21006;-83
2021/06/05 09:29:57;;;;;;;7.53;4.28;;;;;;;21.00;50.30;101925.95;1794798;79;21018;-84
2021/06/05 09:32:28;;;;;;;7.47;4.25;;;;;;;21.01;50.57;101927.76;1794207;79;21552;-84
2021/06/05 09:35:13;;;;;;;7.00;3.95;;;;;;;21.06;50.79;101931.34;1794498;79;21164;-84
2021/06/05 09:37:55;;;;;;;6.15;4.47;;;;;;;21.07;50.56;101928.20;1794640;79;21054;-83
2021/06/05 09:40:33;;;;;;;8.65;4.30;;;;;;;21.03;50.84;101932.66;1793949;79;21058;-83
2021/06/05 09:43:15;;;;;;;4.78;4.03;;;;;;;21.05;51.25;101924.18;1794608;79;21631;-85
2021/06/05 09:46:09;;;;;;;6.65;4.20;;;;;;;21.12;50.99;101924.64;1794261;79;21050;-85
2021/06/05 09:48:44;;;;;;;6.55;4.05;;;;;;;21.15;51.16;101912.59;1803394;79;21899;-85
2021/06/05 09:51:34;;;;;;;9.78;4.28;;;;;;;21.22;51.29;101920.63;1794990;79;21007;-85
2021/06/05 09:54:07;;;;;;;7.20;4.00;;;;;;;21.19;51.08;101921.52;1794791;79;21069;-85
2021/06/05 09:56:39;;;;;;;8.08;4.20;;;;;;;21.09;51.10;101921.06;1790260;79;21020;-84
2021/06/05 09:59:24;;;;;;;6.00;4.15;;;;;;;21.09;51.35;101913.03;1788970;79;21003;-85
2021/06/05 10:02:09;;;;;;;10.13;3.95;;;;;;;21.13;51.37;101915.73;1776583;79;21800;-84
2021/06/05 10:04:37;;;;;;;6.78;4.12;;;;;;;21.19;50.93;101914.83;1791467;79;21054;-82
2021/06/05 10:07:04;;;;;;;5.47;3.85;;;;;;;21.20;50.24;101913.04;1794676;79;21077;-84
2021/06/05 10:09:35;;;;;;;9.53;3.92;;;;;;;21.20;50.26;101909.91;1776759;79;21058;-84
2021/06/05 10:12:20;;;;;;;5.95;3.80;;;;;;;21.23;50.62;101905.90;1794117;79;21011;-84
2021/06/05 10:15:06;;;;;;;6.45;4.03;;;;;;;21.27;50.52;101914.37;1765017;79;21924;-84
2021/06/05 10:17:50;;;;;;;8.48;3.95;;;;;;;21.28;50.37;101910.78;1763295;80;21073;-84
2021/06/05 10:20:44;;;;;;;7.30;3.50;;;;;;;21.35;49.87;101910.34;1763527;80;21516;-84
2021/06/05 10:23:11;;;;;;;;;;;;;;;21.37;49.67;101913.91;1744666;80;21054;-84
2021/06/05 10:25:45;;;;;;;7.50;3.50;;;;;;;21.39;49.48;101901.40;1727550;83;20218;-84
2021/06/05 10:28:21;;;;;;;6.80;3.40;;;;;;;21.43;49.26;101905.84;1757314;81;21661;-84
2021/06/05 10:31:09;;;;;;;5.53;3.85;;;;;;;21.46;48.99;101896.97;1761698;80;21178;-83
2021/06/05 10:33:40;;;;;;;8.08;3.80;;;;;;;21.39;48.92;101905.42;1757007;81;21069;-84
2021/06/05 10:36:35;;;;;;;7.45;3.52;;;;;;;21.28;48.69;101897.39;1756960;81;21078;-83
2021/06/05 10:39:16;;;;;;;5.55;3.40;;;;;;;21.24;48.88;101902.77;1752769;81;21038;-83
2021/06/05 10:41:50;;;;;;;5.75;3.65;;;;;;;21.27;48.79;101896.96;1757151;81;22815;-82
2021/06/05 10:44:17;;;;;;;11.00;4.03;;;;;;;21.32;49.01;101888.91;1757799;81;21132;-83
2021/06/05 10:47:02;;;;;;;7.67;3.70;;;;;;;21.31;48.30;101900.08;1730853;82;21078;-83
2021/06/05 10:49:52;;;;;;;5.15;3.40;;;;;;;21.26;47.98;101896.50;1729278;81;21140;-83
2021/06/05 10:52:47;;;;;;;7.40;4.50;;;;;;;21.17;47.70;101885.80;1711804;82;21133;-83
2021/06/05 10:55:27;;;;;;;6.57;3.23;;;;;;;21.21;47.62;101890.70;1704287;81;21773;-83
2021/06/05 10:58:24;;;;;;;4.40;3.08;;;;;;;21.28;47.19;101903.20;1730520;82;21110;-84
2021/06/05 11:01:00;;;;;;;5.37;2.80;;;;;;;21.31;47.03;101892.05;1732613;81;21137;-80
2021/06/05 11:03:40;;;;;;;8.50;3.17;;;;;;;21.30;46.65;101890.70;1762917;80;21013;-82
2021/06/05 11:06:12;;;;;;;6.12;3.12;;;;;;;21.27;46.13;101892.95;1746122;81;21090;-82
2021/06/05 11:08:47;;;;;;;7.03;2.85;;;;;;;21.23;45.86;101899.62;1762852;81;22368;-82
2021/06/05 11:11:22;;;;;;;5.28;3.22;;;;;;;21.23;45.72;101896.95;1763453;81;20986;-82
2021/06/05 11:13:53;;;;;;;6.83;3.30;;;;;;;21.29;45.51;101891.16;1740101;81;21523;-82
2021/06/05 11:16:21;;;;;;;4.80;3.10;;;;;;;21.28;44.89;101899.18;1793474;80;21073;-80
2021/06/05 11:18:58;;;;;;;4.00;3.25;;;;;;;21.29;44.80;101893.83;1794817;79;21104;-82
2021/06/05 11:21:30;;;;;;;4.17;2.92;;;;;;;21.35;44.50;101899.62;1755825;80;22415;-82
2021/06/05 11:24:02;;;;;;;6.45;3.35;;;;;;;21.42;44.27;101910.78;1733012;81;21066;-83
2021/06/05 11:26:40;;;;;;;4.33;3.10;;;;;;;21.43;43.83;101899.61;1776649;79;21701;-80
2021/06/05 11:30:02;;;;;;;7.53;3.10;;;;;;;21.44;43.53;101913.47;1794830;78;21072;-82
2021/06/05 11:32:38;;;;;;;4.90;2.83;;;;;;;21.40;43.33;101899.61;1761838;79;21037;-81
2021/06/05 11:35:32;;;;;;;6.42;2.87;;;;;;;21.40;43.16;101897.84;1790892;79;21858;-81
2021/06/05 11:38:14;;;;;;;8.45;3.72;;;;;;;21.39;42.37;101896.50;1759292;79;21097;-86
2021/06/05 11:41:04;;;;;;;4.78;2.85;;;;;;;21.37;42.37;101896.50;1726671;80;21073;-87
2021/06/05 11:43:44;;;;;;;6.95;3.77;;;;;;;21.34;42.08;101893.81;1783962;80;21552;-87
2021/06/05 11:46:24;;;;;;;5.58;3.58;;;;;;;21.33;42.04;101886.69;1775970;79;21516;-87
2021/06/05 11:49:04;;;;;;;6.03;3.72;;;;;;;21.33;41.95;101901.42;1774711;80;22488;-87
2021/06/05 11:51:48;;;;;;;7.87;4.40;;;;;;;21.28;41.85;101888.47;1780123;80;21577;-87
2021/06/05 11:54:20;;;;;;;5.37;3.37;;;;;;;21.30;41.96;101896.05;1762878;80;21050;-87
2021/06/05 11:56:58;;;;;;;6.00;3.02;;;;;;;21.24;41.73;101878.20;1779134;80;21050;-87
2021/06/05 11:59:40;;;;;;;4.37;2.95;;;;;;;21.33;41.66;101888.91;1785464;80;21011;-87
2021/06/05 12:02:27;;;;;;;7.05;3.30;;;;;;;21.31;41.21;101883.12;1785590;80;22663;-87
2021/06/05 12:04:57;;;;;;;4.47;2.50;;;;;;;21.29;41.27;101885.80;1785393;80;21104;-87
2021/06/05 12:07:36;;;;;;;7.53;2.50;;;;;;;21.29;41.00;101893.83;1795103;79;21129;-87
2021/06/05 12:10:13;;;;;;;7.80;2.80;;;;;;;21.29;40.78;101889.81;1779763;80;21541;-87
2021/06/05 12:12:52;;;;;;;5.90;2.98;;;;;;;21.30;40.85;101877.30;1764862;80;21078;-88
2021/06/05 12:15:36;;;;;;;6.28;2.90;;;;;;;21.34;40.91;101869.70;1779643;80;21067;-86
2021/06/05 12:21:13;;;;;;;4.22;3.08;;;;;;;21.40;40.60;101872.39;1740319;80;21565;-87
2021/06/05 12:23:44;;;;;;;4.75;2.52;;;;;;;21.41;40.53;101871.48;1763668;80;21106;-87
2021/06/05 12:26:36;;;;;;;5.72;2.83;;;;;;;21.42;40.32;101883.11;1749549;80;21191;-86
2021/06/05 12:29:23;;;;;;;7.47;2.90;;;;;;;21.36;40.29;101867.95;1736685;81;21085;-81
2021/06/05 12:31:54;;;;;;;5.95;2.67;;;;;;;21.39;40.37;101875.95;1674783;85;21120;-80
2021/06/05 12:34:36;;;;;;;4.53;2.80;;;;;;;21.36;40.12;101882.22;1677855;84;21119;-82